createdAt,value
2022-11-04T00:00:29.860Z,6.47
2022-11-04T00:07:01.829Z,6.70
2022-11-04T00:10:08.759Z,6.80
2022-11-04T00:13:13.833Z,5.40
2022-11-04T00:16:37.839Z,6.33
2022-11-04T00:20:02.443Z,6.17
2022-11-04T00:23:26.497Z,4.40
2022-11-04T00:26:50.196Z,5.43
2022-11-04T00:29:56.565Z,5.43
2022-11-04T00:33:19.959Z,5.83
2022-11-04T00:36:27.917Z,7.83
2022-11-04T00:39:34.190Z,19.47
2022-11-04T00:42:40.208Z,11.73
2022-11-04T00:45:46.501Z,5.63
2022-11-04T00:48:52.847Z,5.97
2022-11-04T00:52:00.334Z,6.13
2022-11-04T00:55:07.861Z,5.00
2022-11-04T00:58:13.881Z,4.23
2022-11-04T01:01:21.014Z,4.57
2022-11-04T01:04:27.301Z,4.67
2022-11-04T01:07:37.402Z,5.33
2022-11-04T01:10:47.454Z,5.60
2022-11-04T01:13:53.792Z,5.47
2022-11-04T01:16:59.774Z,4.53
2022-11-04T01:20:06.686Z,5.63
2022-11-04T01:23:14.385Z,4.53
2022-11-04T01:26:23.024Z,5.10
2022-11-04T01:29:29.425Z,6.50
2022-11-04T01:32:36.089Z,6.67
2022-11-04T01:35:42.266Z,5.57
2022-11-04T01:38:50.370Z,6.73
2022-11-04T01:41:56.760Z,6.77
2022-11-04T01:45:03.405Z,8.53
2022-11-04T01:48:19.106Z,7.33
2022-11-04T01:51:25.470Z,5.53
2022-11-04T01:54:34.050Z,5.00
2022-11-04T01:57:43.242Z,6.90
2022-11-04T02:00:50.046Z,6.27
2022-11-04T02:04:20.142Z,6.20
2022-11-04T02:07:26.592Z,5.10
2022-11-04T02:10:34.723Z,7.10
2022-11-04T02:13:39.593Z,7.47
2022-11-04T02:16:49.666Z,7.20
2022-11-04T02:20:10.421Z,7.73
2022-11-04T02:23:34.537Z,7.73
2022-11-04T02:27:18.505Z,7.87
2022-11-04T02:30:27.396Z,12.80
2022-11-04T02:33:39.773Z,13.47
2022-11-04T02:36:53.962Z,12.33
2022-11-04T02:40:11.009Z,10.67
2022-11-04T02:43:25.519Z,7.93
2022-11-04T02:46:37.182Z,6.23
2022-11-04T02:49:52.404Z,7.23
2022-11-04T02:53:02.944Z,8.33
2022-11-04T02:56:11.987Z,6.90
2022-11-04T02:59:22.349Z,7.20
2022-11-04T03:02:35.914Z,7.13
2022-11-04T03:05:45.965Z,7.67
2022-11-04T03:08:54.817Z,6.27
2022-11-04T03:12:04.980Z,9.07
2022-11-04T03:15:15.799Z,6.17
2022-11-04T03:18:32.043Z,6.90
2022-11-04T03:21:43.206Z,15.33
2022-11-04T03:24:50.877Z,8.27
2022-11-04T03:28:04.442Z,7.80
2022-11-04T03:31:14.363Z,7.60
2022-11-04T03:34:21.906Z,9.53
2022-11-04T03:37:28.230Z,8.97
2022-11-04T03:40:34.927Z,6.93
2022-11-04T03:43:43.127Z,8.67
2022-11-04T03:46:49.764Z,8.73
2022-11-04T03:50:06.514Z,7.87
2022-11-04T03:53:15.365Z,7.67
2022-11-04T03:57:03.639Z,8.70
2022-11-04T04:00:13.932Z,9.60
2022-11-04T04:03:26.133Z,10.00
2022-11-04T04:06:36.842Z,30.47
2022-11-04T04:09:47.434Z,13.50
2022-11-04T04:12:57.483Z,9.70
2022-11-04T04:16:08.885Z,9.17
2022-11-04T04:19:18.409Z,9.40
2022-11-04T04:22:30.960Z,16.00
2022-11-04T04:26:05.864Z,16.03
2022-11-04T04:29:12.923Z,26.23
2022-11-04T04:32:21.730Z,21.00
2022-11-04T04:35:45.170Z,16.30
2022-11-04T04:39:10.169Z,15.77
2022-11-04T04:42:33.706Z,15.80
2022-11-04T04:45:43.619Z,13.93
2022-11-04T04:48:49.869Z,13.77
2022-11-04T04:51:55.832Z,11.53
2022-11-04T04:55:03.035Z,11.57
2022-11-04T04:58:10.705Z,11.93
2022-11-04T05:01:16.756Z,10.50
2022-11-04T05:04:23.169Z,11.20
2022-11-04T05:07:29.296Z,17.50
2022-11-04T05:10:36.937Z,14.57
2022-11-04T05:13:43.041Z,15.23
2022-11-04T05:16:49.093Z,17.70
2022-11-04T05:19:55.486Z,15.50
2022-11-04T05:23:01.774Z,15.33
2022-11-04T05:26:09.781Z,12.57
2022-11-04T05:32:26.799Z,17.77
2022-11-04T05:35:33.323Z,21.37
2022-11-04T05:38:39.720Z,16.60
2022-11-04T05:41:47.192Z,18.60
2022-11-04T05:44:53.265Z,14.37
2022-11-04T05:48:00.606Z,17.37
2022-11-04T05:51:07.076Z,18.77
2022-11-04T05:54:13.358Z,13.83
2022-11-04T05:57:20.957Z,10.47
2022-11-04T06:00:27.783Z,12.93
2022-11-04T06:03:34.140Z,14.43
2022-11-04T06:06:40.106Z,11.53
2022-11-04T06:09:46.020Z,10.30
2022-11-04T06:12:53.348Z,10.27
2022-11-04T06:15:59.275Z,11.70
2022-11-04T06:19:08.557Z,15.83
2022-11-04T06:22:17.470Z,18.23
2022-11-04T06:25:23.205Z,28.13
2022-11-04T06:28:30.773Z,32.10
2022-11-04T06:31:37.099Z,19.97
2022-11-04T06:34:43.796Z,14.60
2022-11-04T06:37:50.101Z,12.77
2022-11-04T06:40:56.054Z,15.00
2022-11-04T06:44:03.943Z,10.73
2022-11-04T06:47:11.312Z,14.00
2022-11-04T06:50:17.161Z,11.97
2022-11-04T06:53:23.362Z,12.50
2022-11-04T06:56:29.577Z,13.10
2022-11-04T06:59:37.254Z,11.90
2022-11-04T07:02:43.824Z,12.00
2022-11-04T07:05:50.157Z,13.90
2022-11-04T07:08:59.669Z,16.80
2022-11-04T07:12:06.257Z,15.50
2022-11-04T07:15:14.349Z,10.97
2022-11-04T07:18:20.374Z,12.47
2022-11-04T07:21:27.038Z,13.40
2022-11-04T07:24:33.397Z,11.30
2022-11-04T07:27:39.693Z,12.43
2022-11-04T07:30:47.226Z,15.33
2022-11-04T07:33:53.553Z,16.47
2022-11-04T07:36:59.438Z,12.70
2022-11-04T07:40:06.285Z,12.37
2022-11-04T07:43:12.521Z,9.03
2022-11-04T07:46:20.986Z,8.70
2022-11-04T07:49:27.622Z,8.40
2022-11-04T07:52:33.886Z,10.00
2022-11-04T07:55:43.370Z,12.27
2022-11-04T07:58:49.845Z,9.57
2022-11-04T08:01:57.570Z,8.70
2022-11-04T08:05:03.761Z,10.27
2022-11-04T08:08:10.053Z,12.00
2022-11-04T08:11:18.994Z,11.13
2022-11-04T08:14:25.569Z,11.17
2022-11-04T08:17:33.081Z,9.27
2022-11-04T08:20:39.603Z,10.53
2022-11-04T08:23:46.277Z,8.57
2022-11-04T08:26:52.498Z,7.73
2022-11-04T08:29:58.930Z,6.37
2022-11-04T08:33:06.844Z,5.93
2022-11-04T08:36:16.211Z,7.40
2022-11-04T08:39:22.293Z,7.80
2022-11-04T08:42:28.365Z,7.20
2022-11-04T08:45:34.428Z,6.77
2022-11-04T08:48:42.744Z,6.60
2022-11-04T08:51:49.811Z,7.57
2022-11-04T08:54:57.500Z,6.57
2022-11-04T08:58:04.544Z,6.83
2022-11-04T09:01:12.868Z,5.23
2022-11-04T09:04:20.950Z,6.10
2022-11-04T09:07:27.049Z,6.50
2022-11-04T09:10:33.105Z,6.97
2022-11-04T09:13:40.154Z,7.00
2022-11-04T09:16:46.249Z,7.00
2022-11-04T09:19:53.533Z,7.03
2022-11-04T09:22:59.965Z,5.60
2022-11-04T09:26:08.802Z,6.87
2022-11-04T09:29:15.205Z,6.23
2022-11-04T09:32:21.217Z,6.67
2022-11-04T09:35:28.828Z,6.50
2022-11-04T09:38:34.768Z,6.17
2022-11-04T09:42:12.254Z,6.30
2022-11-04T09:45:21.876Z,7.03
2022-11-04T09:48:33.319Z,6.67
2022-11-04T09:51:57.715Z,8.23
2022-11-04T09:55:12.681Z,8.03
2022-11-04T09:58:19.223Z,7.13
2022-11-04T10:01:32.442Z,7.67
2022-11-04T10:04:50.304Z,6.57
2022-11-04T10:08:19.030Z,6.30
2022-11-04T10:11:31.659Z,6.77
2022-11-04T10:15:09.054Z,7.23
2022-11-04T10:18:29.125Z,7.73
2022-11-04T10:21:47.196Z,6.63
2022-11-04T10:25:04.398Z,6.27
2022-11-04T10:28:15.156Z,7.30
2022-11-04T10:31:21.581Z,6.93
2022-11-04T10:34:33.900Z,7.57
2022-11-04T10:37:40.276Z,6.50
2022-11-04T10:40:51.108Z,7.57
2022-11-04T10:44:01.137Z,8.47
2022-11-04T10:47:19.609Z,7.93
2022-11-04T10:50:38.775Z,5.90
2022-11-04T10:53:45.333Z,5.80
2022-11-04T10:56:55.037Z,5.67
2022-11-04T11:00:02.894Z,6.87
2022-11-04T11:03:32.062Z,5.73
2022-11-04T11:06:38.946Z,6.30
2022-11-04T11:09:54.543Z,6.37
2022-11-04T11:13:04.836Z,5.80
2022-11-04T11:16:14.330Z,6.10
2022-11-04T11:19:23.158Z,6.87
2022-11-04T11:22:32.858Z,5.57
2022-11-04T11:25:45.385Z,5.90
2022-11-04T11:28:59.109Z,6.13
2022-11-04T11:32:05.706Z,5.40
2022-11-04T11:35:18.158Z,6.10
2022-11-04T11:38:27.652Z,5.90
2022-11-04T11:41:41.076Z,5.60
2022-11-04T11:44:54.454Z,5.10
2022-11-04T11:48:00.681Z,5.20
2022-11-04T11:51:21.899Z,5.03
2022-11-04T11:54:34.641Z,5.60
2022-11-04T12:01:27.765Z,5.50
2022-11-04T12:11:56.326Z,4.97
2022-11-04T12:15:20.019Z,5.87
2022-11-04T12:18:44.114Z,4.93
2022-11-04T12:22:00.671Z,4.93
2022-11-04T12:25:19.046Z,4.80
2022-11-04T12:28:32.286Z,4.90
2022-11-04T12:31:48.503Z,5.60
2022-11-04T12:35:12.206Z,4.90
2022-11-04T12:38:32.717Z,5.03
2022-11-04T12:42:19.514Z,5.13
2022-11-04T12:45:31.438Z,5.50
2022-11-04T12:49:08.899Z,4.43
2022-11-04T12:52:32.034Z,4.47
2022-11-04T12:55:49.216Z,5.37
2022-11-04T12:59:33.501Z,3.97
2022-11-04T13:02:46.207Z,5.27
2022-11-04T13:05:55.135Z,5.80
2022-11-04T13:09:07.125Z,4.67
2022-11-04T13:12:17.557Z,4.87
2022-11-04T13:15:28.665Z,4.93
2022-11-04T13:18:38.683Z,4.33
2022-11-04T13:21:44.955Z,4.60
2022-11-04T13:24:56.925Z,4.43
2022-11-04T13:28:04.583Z,4.53
2022-11-04T13:31:16.771Z,4.57
2022-11-04T13:34:34.689Z,4.33
2022-11-04T13:37:49.149Z,5.07
2022-11-04T13:41:16.132Z,5.00
2022-11-04T13:44:28.134Z,4.50
2022-11-04T13:47:38.758Z,5.73
2022-11-04T13:50:44.610Z,5.60
2022-11-04T13:53:55.182Z,4.93
2022-11-04T13:57:16.319Z,4.93
2022-11-04T14:00:25.686Z,5.60
2022-11-04T14:03:52.958Z,4.73
2022-11-04T14:07:01.875Z,8.50
2022-11-04T14:10:40.362Z,5.80
2022-11-04T14:14:20.818Z,5.30
2022-11-04T14:17:58.782Z,5.70
2022-11-04T14:21:10.402Z,10.50
2022-11-04T14:24:20.340Z,13.40
2022-11-04T14:27:34.218Z,12.67
2022-11-04T14:30:49.908Z,15.17
2022-11-04T14:33:58.008Z,17.03
2022-11-04T14:37:09.871Z,13.53
2022-11-04T14:40:27.093Z,14.27
2022-11-04T14:43:36.127Z,15.03
2022-11-04T14:46:46.670Z,15.67
2022-11-04T14:50:01.359Z,13.47
2022-11-04T14:53:14.631Z,15.00
2022-11-04T14:56:24.728Z,11.67
2022-11-04T14:59:31.560Z,14.80
2022-11-04T15:02:39.308Z,27.00
2022-11-04T15:05:50.881Z,18.60
2022-11-04T15:08:57.780Z,42.63
2022-11-04T15:12:30.438Z,28.37
2022-11-04T15:15:40.151Z,164.80
2022-11-04T15:18:48.307Z,49.83
2022-11-04T15:21:54.610Z,32.27
2022-11-04T15:25:06.013Z,49.10
2022-11-04T15:28:19.771Z,59.67
2022-11-04T15:31:27.886Z,69.07
2022-11-04T15:34:37.494Z,128.07
2022-11-04T15:37:45.186Z,111.87
2022-11-04T15:40:52.536Z,141.33
2022-11-04T15:43:58.197Z,132.53
2022-11-04T15:47:21.636Z,118.27
2022-11-04T15:50:32.045Z,85.87
2022-11-04T15:53:48.636Z,77.17
2022-11-04T15:56:56.378Z,58.57
2022-11-04T16:00:07.266Z,64.47
2022-11-04T16:03:20.675Z,34.10
2022-11-04T16:06:39.566Z,47.83
2022-11-04T16:09:48.501Z,28.30
2022-11-04T16:12:57.917Z,17.50
2022-11-04T16:16:15.407Z,27.53
2022-11-04T16:19:23.790Z,25.37
2022-11-04T16:22:33.459Z,25.73
2022-11-04T16:25:40.216Z,81.43
2022-11-04T16:28:46.739Z,36.57
2022-11-04T16:32:15.967Z,31.47
2022-11-04T16:35:24.068Z,39.47
2022-11-04T16:38:32.126Z,42.47
2022-11-04T16:41:40.561Z,39.77
2022-11-04T16:44:52.033Z,77.27
2022-11-04T16:47:58.928Z,48.73
2022-11-04T16:51:05.570Z,49.37
2022-11-04T16:54:13.052Z,49.57
2022-11-04T16:57:19.458Z,50.53
2022-11-04T17:00:28.159Z,70.67
2022-11-04T17:03:34.139Z,46.23
2022-11-04T17:06:40.631Z,35.17
2022-11-04T17:09:48.478Z,42.20
2022-11-04T17:12:55.031Z,45.17
2022-11-04T17:16:01.801Z,65.17
2022-11-04T17:19:12.188Z,41.80
2022-11-04T17:22:18.571Z,40.97
2022-11-04T17:25:28.047Z,37.90
2022-11-04T17:28:34.064Z,38.90
2022-11-04T17:31:40.191Z,62.50
2022-11-04T17:34:47.085Z,80.23
2022-11-04T17:37:54.188Z,67.57
2022-11-04T17:41:33.795Z,70.87
2022-11-04T17:44:40.139Z,66.23
2022-11-04T17:47:46.131Z,88.67
2022-11-04T17:50:52.254Z,70.20
2022-11-04T17:53:58.742Z,61.23
2022-11-04T17:57:07.447Z,56.73
2022-11-04T18:00:15.765Z,52.70
2022-11-04T18:03:21.684Z,52.73
2022-11-04T18:06:31.568Z,54.70
2022-11-04T18:09:39.355Z,53.87
2022-11-04T18:12:46.996Z,47.60
2022-11-04T18:15:53.049Z,41.40
2022-11-04T18:19:00.105Z,44.43
2022-11-04T18:22:06.277Z,51.40
2022-11-04T18:25:13.791Z,72.27
2022-11-04T18:28:21.624Z,116.90
2022-11-04T18:31:29.954Z,76.57
2022-11-04T18:34:36.281Z,72.70
2022-11-04T18:37:46.976Z,51.67
2022-11-04T18:40:55.270Z,49.07
2022-11-04T18:44:02.921Z,36.17
2022-11-04T18:47:09.374Z,31.87
2022-11-04T18:50:15.630Z,25.30
2022-11-04T18:53:26.852Z,28.23
2022-11-04T18:56:33.430Z,25.63
2022-11-04T18:59:41.260Z,30.43
2022-11-04T19:02:47.510Z,23.80
2022-11-04T19:05:54.105Z,17.93
2022-11-04T19:09:13.315Z,17.73
2022-11-04T19:12:46.485Z,37.80
2022-11-04T19:15:54.250Z,28.57
2022-11-04T19:19:01.839Z,81.60
2022-11-04T19:22:08.249Z,53.07
2022-11-04T19:25:14.632Z,40.40
2022-11-04T19:28:37.289Z,24.67
2022-11-04T19:31:48.911Z,13.87
2022-11-04T19:34:55.081Z,12.23
2022-11-04T19:38:01.944Z,15.93
2022-11-04T19:41:30.451Z,16.97
2022-11-04T19:44:35.778Z,18.60
2022-11-04T19:47:43.344Z,16.30
2022-11-04T19:50:50.712Z,13.30
2022-11-04T19:53:57.452Z,14.37
2022-11-04T19:57:03.555Z,14.20
2022-11-04T20:00:12.083Z,17.97
2022-11-04T20:03:19.608Z,21.37
2022-11-04T20:06:25.501Z,20.67
2022-11-04T20:09:31.507Z,21.70
2022-11-04T20:12:55.329Z,21.60
2022-11-04T20:16:01.248Z,22.53
2022-11-04T20:19:10.549Z,23.43
2022-11-04T20:22:17.278Z,27.53
2022-11-04T20:25:23.538Z,36.87
2022-11-04T20:28:32.515Z,39.13
2022-11-04T20:31:39.460Z,26.27
2022-11-04T20:34:49.343Z,20.43
2022-11-04T20:37:57.460Z,19.00
2022-11-04T20:41:07.533Z,16.07
2022-11-04T20:44:15.436Z,16.30
2022-11-04T20:47:22.335Z,17.07
2022-11-04T20:50:29.598Z,15.60
2022-11-04T20:53:36.567Z,17.10
2022-11-04T20:56:44.240Z,15.57
2022-11-04T20:59:50.621Z,17.97
2022-11-04T21:02:56.577Z,13.83
2022-11-04T21:06:04.093Z,13.53
2022-11-04T21:09:12.841Z,14.13
2022-11-04T21:12:19.438Z,14.03
2022-11-04T21:15:44.439Z,13.60
2022-11-04T21:18:50.444Z,15.17
2022-11-04T21:21:58.090Z,23.80
2022-11-04T21:25:04.767Z,22.90
2022-11-04T21:28:11.668Z,19.87
2022-11-04T21:31:18.114Z,24.20
2022-11-04T21:34:24.612Z,15.77
2022-11-04T21:37:36.781Z,16.70
2022-11-04T21:40:44.366Z,11.60
2022-11-04T21:43:55.359Z,10.37
2022-11-04T21:47:01.522Z,11.77
2022-11-04T21:50:11.385Z,10.33
2022-11-04T21:53:21.690Z,11.77
2022-11-04T21:56:29.723Z,15.23
2022-11-04T21:59:36.317Z,15.03
2022-11-04T22:02:43.889Z,13.57
2022-11-04T22:05:58.357Z,11.07
2022-11-04T22:09:06.636Z,9.00
2022-11-04T22:12:12.570Z,9.23
2022-11-04T22:15:39.611Z,10.67
2022-11-04T22:18:46.928Z,8.67
2022-11-04T22:21:52.926Z,10.60
2022-11-04T22:25:04.256Z,10.07
2022-11-04T22:28:10.641Z,11.57
2022-11-04T22:31:19.238Z,12.07
2022-11-04T22:34:26.439Z,11.30
2022-11-04T22:37:32.633Z,10.03
2022-11-04T22:40:40.550Z,10.30
2022-11-04T22:43:46.683Z,14.33
2022-11-04T22:46:52.864Z,12.17
2022-11-04T22:49:58.886Z,13.50
2022-11-04T22:53:05.108Z,12.07
2022-11-04T22:56:14.949Z,10.13
2022-11-04T22:59:21.239Z,8.63
2022-11-04T23:02:29.983Z,9.47
2022-11-04T23:05:38.521Z,9.37
2022-11-04T23:08:45.182Z,7.97
2022-11-04T23:12:09.739Z,8.63
2022-11-04T23:15:33.252Z,9.83
2022-11-04T23:18:45.253Z,14.30
2022-11-04T23:22:08.885Z,19.50
2022-11-04T23:25:15.410Z,11.27
2022-11-04T23:28:40.488Z,8.53
2022-11-04T23:31:46.444Z,13.93
2022-11-04T23:35:10.180Z,9.63
2022-11-04T23:38:16.229Z,9.40
2022-11-04T23:41:39.713Z,7.13
2022-11-04T23:45:06.691Z,10.83
2022-11-04T23:48:30.528Z,9.97
2022-11-04T23:51:54.146Z,8.43
2022-11-04T23:55:17.916Z,8.67
2022-11-04T23:58:41.705Z,9.30
